Time;durP1;ratioP1;P1;durP2;ratioP2;P2;SDS_P1;SDS_P2;PMS_P1;PMS_P2;Temp;Humidity;BMP_temperature;BMP_pressure;BME280_temperature;BME280_humidity;BME280_pressure;Samples;Min_cycle;Max_cycle;Signal;HPM_P1;HPM_P2
2023/09/21 00:00:30;;;;;;;3.65;2.40;;;;;;;12.85;100.00;92314.94;2099108;28;20087;-86
2023/09/21 00:01:33;;;;;;;4.75;2.20;;;;;;;12.80;100.00;92315.53;2107534;28;20469;-86
2023/09/21 00:02:34;;;;;;;2.85;2.28;;;;;;;12.80;100.00;92312.13;2107735;28;20472;-87
2023/09/21 00:03:36;;;;;;;4.03;2.65;;;;;;;12.85;100.00;92309.56;2115645;28;20104;-86
2023/09/21 00:04:38;;;;;;;5.70;2.42;;;;;;;12.93;100.00;92314.63;2124017;27;20098;-86
2023/09/21 00:05:40;;;;;;;3.78;2.60;;;;;;;12.85;100.00;92311.50;2107366;28;20073;-86
2023/09/21 00:06:41;;;;;;;3.03;2.38;;;;;;;12.96;100.00;92311.06;2107449;28;20567;-86
2023/09/21 00:07:42;;;;;;;5.38;2.88;;;;;;;12.96;100.00;92308.38;2115627;28;20073;-87
2023/09/21 00:08:47;;;;;;;5.15;2.40;;;;;;;12.87;100.00;92306.47;2107309;28;20117;-84
2023/09/21 00:09:48;;;;;;;3.50;2.33;;;;;;;12.91;100.00;92306.31;2107635;28;20560;-82
2023/09/21 00:10:51;;;;;;;3.70;2.30;;;;;;;12.88;100.00;92307.19;2102935;28;20214;-86
2023/09/21 00:11:54;;;;;;;2.90;2.60;;;;;;;12.91;100.00;92298.25;2098787;28;20017;-85
2023/09/21 00:12:55;;;;;;;2.70;2.22;;;;;;;12.97;100.00;92288.41;2091049;28;20100;-86
2023/09/21 00:13:57;;;;;;;7.25;2.65;;;;;;;12.99;100.00;92296.72;2107324;28;20058;-84
2023/09/21 00:15:12;;;;;;;3.30;2.28;;;;;;;13.02;100.00;92291.22;2115443;28;20026;-85
2023/09/21 00:16:18;;;;;;;5.13;2.45;;;;;;;12.97;100.00;92289.13;2109330;28;20028;-85
2023/09/21 00:17:19;;;;;;;4.90;2.50;;;;;;;13.01;100.00;92294.34;2107756;28;20016;-87
2023/09/21 00:18:23;;;;;;;5.43;2.72;;;;;;;13.10;100.00;92291.66;2107055;28;20024;-86
2023/09/21 00:19:24;;;;;;;3.53;2.40;;;;;;;13.03;100.00;92286.59;2110988;27;20016;-84
2023/09/21 00:20:35;;;;;;;3.08;2.50;;;;;;;13.05;100.00;92286.91;2115373;28;20031;-87
2023/09/21 00:21:37;;;;;;;3.85;2.50;;;;;;;13.03;100.00;92286.59;2116821;27;20023;-85
2023/09/21 00:22:38;;;;;;;3.20;2.80;;;;;;;12.95;100.00;92283.50;2115347;28;20380;-84
2023/09/21 00:23:40;;;;;;;3.58;2.70;;;;;;;12.90;100.00;92286.75;2115629;28;20038;-84
2023/09/21 00:24:42;;;;;;;4.07;2.17;;;;;;;12.92;100.00;92284.38;2115399;28;20036;-84
2023/09/21 00:25:43;;;;;;;4.88;2.67;;;;;;;12.95;100.00;92286.19;2107011;28;20024;-84
2023/09/21 00:26:49;;;;;;;6.03;2.58;;;;;;;12.99;100.00;92278.69;2106990;28;20024;-87
2023/09/21 00:27:50;;;;;;;2.88;2.40;;;;;;;12.85;100.00;92277.38;2108079;27;20058;-85
2023/09/21 00:28:51;;;;;;;5.03;2.65;;;;;;;12.95;100.00;92283.50;2106619;28;20139;-87
2023/09/21 00:29:52;;;;;;;3.80;2.80;;;;;;;12.98;100.00;92277.22;2106770;28;20465;-87
2023/09/21 00:30:54;;;;;;;4.78;2.83;;;;;;;12.97;100.00;92277.66;2115483;28;20081;-86
2023/09/21 00:31:57;;;;;;;8.25;2.65;;;;;;;12.95;100.00;92272.75;2115764;27;20028;-86
2023/09/21 00:32:58;;;;;;;5.03;2.78;;;;;;;12.96;100.00;92276.19;2107252;28;20085;-83
2023/09/21 00:33:59;;;;;;;4.32;2.33;;;;;;;12.95;100.00;92277.38;2106915;28;20480;-85
2023/09/21 00:35:00;;;;;;;6.72;2.80;;;;;;;13.04;100.00;92269.31;2098655;28;20123;-85
2023/09/21 00:36:05;;;;;;;2.88;2.40;;;;;;;12.99;100.00;92275.25;2115523;28;20361;-85
2023/09/21 00:37:07;;;;;;;5.10;2.80;;;;;;;12.94;100.00;92270.50;2115296;28;20019;-85
2023/09/21 00:38:14;;;;;;;2.85;2.45;;;;;;;13.03;100.00;92263.19;2115561;27;20104;-85
2023/09/21 00:39:15;;;;;;;3.58;2.78;;;;;;;12.92;100.00;92268.28;2107474;28;20106;-86
2023/09/21 00:40:17;;;;;;;4.00;2.88;;;;;;;12.98;100.00;92261.13;2098694;28;20024;-86
2023/09/21 00:41:18;;;;;;;3.20;2.42;;;;;;;13.01;100.00;92262.16;2107116;28;20024;-83
2023/09/21 00:42:19;;;;;;;3.42;2.67;;;;;;;13.04;100.00;92267.38;2098669;28;20516;-85
2023/09/21 00:43:21;;;;;;;6.07;2.70;;;;;;;12.98;100.00;92268.41;2098516;28;20056;-85
2023/09/21 00:44:22;;;;;;;4.57;2.58;;;;;;;12.97;100.00;92262.31;2115645;27;20114;-86
2023/09/21 00:45:23;;;;;;;4.90;2.47;;;;;;;13.03;100.00;92257.06;2123661;27;20023;-84
2023/09/21 00:46:26;;;;;;;3.35;2.70;;;;;;;13.03;100.00;92260.50;2123704;27;20192;-84
2023/09/21 00:47:28;;;;;;;4.30;2.53;;;;;;;13.03;100.00;92255.13;2115194;28;20361;-87
2023/09/21 00:48:36;;;;;;;9.18;2.45;;;;;;;12.96;100.00;92252.78;2098635;28;20051;-85
2023/09/21 00:49:38;;;;;;;3.75;2.40;;;;;;;12.99;100.00;92254.53;2100359;28;20082;-85
2023/09/21 00:50:44;;;;;;;3.30;2.50;;;;;;;13.01;100.00;92254.84;2107267;27;20023;-86
2023/09/21 00:51:45;;;;;;;3.30;2.50;;;;;;;12.99;100.00;92251.13;2107521;28;20547;-84
2023/09/21 00:52:46;;;;;;;2.95;2.55;;;;;;;13.04;100.00;92253.22;2098375;28;20497;-85
2023/09/21 00:53:48;;;;;;;3.42;2.60;;;;;;;12.98;100.00;92250.38;2098769;28;20027;-87
2023/09/21 00:54:49;;;;;;;4.43;2.83;;;;;;;12.98;100.00;92250.38;2106517;28;20020;-85
2023/09/21 00:55:53;;;;;;;4.93;2.60;;;;;;;13.00;100.00;92253.38;2115299;28;20059;-84
2023/09/21 00:56:55;;;;;;;4.20;2.55;;;;;;;13.04;100.00;92248.59;2106181;28;20096;-85
2023/09/21 00:58:00;;;;;;;3.75;2.47;;;;;;;13.06;100.00;92246.19;2090226;28;20061;-83
2023/09/21 00:59:05;;;;;;;4.13;2.40;;;;;;;13.02;100.00;92244.88;2099608;28;20036;-86
2023/09/21 01:00:15;;;;;;;4.57;2.83;;;;;;;12.99;100.00;92251.13;2098924;28;20425;-86
2023/09/21 01:01:18;;;;;;;7.13;2.67;;;;;;;12.98;100.00;92250.38;2100709;28;20031;-85
2023/09/21 01:02:22;;;;;;;3.83;2.80;;;;;;;13.02;100.00;92244.88;2107133;28;20051;-84
2023/09/21 01:03:25;;;;;;;4.53;2.50;;;;;;;13.11;100.00;92242.16;2107024;28;20112;-85
2023/09/21 01:04:26;;;;;;;5.85;2.50;;;;;;;13.10;100.00;92241.41;2115079;28;20149;-87
2023/09/21 01:05:29;;;;;;;3.75;2.38;;;;;;;13.10;100.00;92241.41;2115304;27;20043;-86
2023/09/21 01:06:30;;;;;;;3.38;2.40;;;;;;;13.08;100.00;92243.81;2107045;28;20032;-86
2023/09/21 01:07:32;;;;;;;6.20;2.25;;;;;;;13.03;100.00;92241.72;2098383;28;20107;-84
2023/09/21 01:08:33;;;;;;;3.55;2.40;;;;;;;12.96;100.00;92236.69;2090011;28;20025;-84
2023/09/21 01:09:34;;;;;;;2.30;1.92;;;;;;;13.06;100.00;92243.50;2090180;28;20074;-84
2023/09/21 01:10:56;;;;;;;2.30;2.10;;;;;;;13.18;100.00;92235.72;2098449;28;20380;-86
2023/09/21 01:11:59;;;;;;;4.90;2.10;;;;;;;13.26;100.00;92236.91;2100974;28;20032;-87
2023/09/21 01:13:00;;;;;;;3.00;2.13;;;;;;;13.29;100.00;92239.41;2090602;28;20028;-84
2023/09/21 01:14:01;;;;;;;4.88;2.08;;;;;;;13.34;100.00;92238.06;2098371;28;20032;-84
2023/09/21 01:15:10;;;;;;;7.60;2.42;;;;;;;13.21;100.00;92238.22;2098257;28;20048;-87
2023/09/21 01:16:11;;;;;;;2.90;2.25;;;;;;;13.22;100.00;92239.00;2100321;28;20038;-83
2023/09/21 01:17:12;;;;;;;2.97;2.28;;;;;;;13.24;100.00;92239.31;2098232;28;20429;-84
2023/09/21 01:18:16;;;;;;;3.30;2.42;;;;;;;13.33;100.00;92239.25;2106665;28;20024;-88
2023/09/21 01:19:17;;;;;;;4.28;2.47;;;;;;;13.35;100.00;92236.88;2114846;28;20023;-86
2023/09/21 01:20:40;;;;;;;4.40;2.30;;;;;;;13.33;100.00;92231.19;2106504;28;20016;-85
2023/09/21 01:21:43;;;;;;;3.10;2.35;;;;;;;13.34;100.00;92235.38;2115075;28;20464;-86
2023/09/21 01:22:56;;;;;;;3.47;2.25;;;;;;;13.32;100.00;92235.09;2114832;28;20028;-85
2023/09/21 01:23:57;;;;;;;2.88;2.33;;;;;;;13.27;100.00;92231.09;2114343;27;20357;-83
2023/09/21 01:24:58;;;;;;;3.92;2.58;;;;;;;13.26;100.00;92228.88;2114954;28;20030;-84
2023/09/21 01:26:00;;;;;;;2.67;2.45;;;;;;;13.32;100.00;92224.34;2106573;28;20035;-83
2023/09/21 01:27:03;;;;;;;3.15;2.70;;;;;;;13.34;100.00;92230.78;2098426;28;20032;-84
2023/09/21 01:28:04;;;;;;;3.80;2.72;;;;;;;13.37;100.00;92228.34;2106796;28;20492;-86
2023/09/21 01:29:06;;;;;;;4.13;2.83;;;;;;;13.44;100.00;92236.09;2106234;28;20102;-86
2023/09/21 01:30:11;;;;;;;4.28;3.00;;;;;;;13.48;100.00;92231.31;2098334;28;20032;-85
2023/09/21 01:31:13;;;;;;;3.30;2.60;;;;;;;13.49;100.00;92230.09;2107239;28;20016;-84
2023/09/21 01:32:14;;;;;;;5.68;3.17;;;;;;;13.61;100.00;92229.16;2100853;28;20023;-84
2023/09/21 01:33:18;;;;;;;5.50;3.10;;;;;;;13.55;100.00;92228.25;2090294;28;20045;-84
2023/09/21 01:34:19;;;;;;;5.38;3.00;;;;;;;13.50;100.00;92229.63;2090560;28;20031;-86
2023/09/21 01:35:24;;;;;;;4.43;2.75;;;;;;;13.53;100.00;92223.34;2106522;28;20016;-83
2023/09/21 01:36:25;;;;;;;7.18;4.45;;;;;;;13.67;100.00;92221.19;2123315;27;20069;-85
2023/09/21 01:37:29;;;;;;;2.90;2.60;;;;;;;13.64;100.00;92214.78;2106471;28;20075;-85
2023/09/21 01:38:30;;;;;;;6.78;2.90;;;;;;;13.64;100.00;92211.34;2107059;28;20023;-85
2023/09/21 01:39:31;;;;;;;6.18;2.95;;;;;;;13.55;100.00;92206.78;2114726;28;20099;-85
2023/09/21 01:40:34;;;;;;;4.85;3.22;;;;;;;13.48;100.00;92207.88;2098093;28;20021;-85
2023/09/21 01:41:35;;;;;;;3.63;2.85;;;;;;;13.58;100.00;92205.88;2101231;28;20590;-84
2023/09/21 01:42:36;;;;;;;4.38;3.00;;;;;;;13.66;100.00;92203.59;2105441;28;20016;-86
2023/09/21 01:43:38;;;;;;;4.28;2.92;;;;;;;13.68;100.00;92203.88;2114880;28;20041;-86
2023/09/21 01:44:39;;;;;;;4.25;2.75;;;;;;;13.60;100.00;92204.22;2106388;28;20035;-84
2023/09/21 01:45:42;;;;;;;5.38;3.17;;;;;;;13.51;100.00;92200.84;2106049;28;20020;-83
2023/09/21 01:46:43;;;;;;;4.18;3.03;;;;;;;13.63;100.00;92207.94;2106428;28;20024;-87
2023/09/21 01:47:44;;;;;;;7.22;3.35;;;;;;;13.59;100.00;92202.72;2106235;28;20028;-83
2023/09/21 01:48:45;;;;;;;6.75;2.90;;;;;;;13.56;100.00;92200.22;2106402;28;20027;-85
2023/09/21 01:49:46;;;;;;;3.67;2.75;;;;;;;13.61;100.00;92196.91;2097925;28;20024;-87
2023/09/21 01:50:50;;;;;;;7.32;3.00;;;;;;;13.70;100.00;92196.84;2089619;28;20438;-85
2023/09/21 01:51:51;;;;;;;5.97;3.20;;;;;;;13.73;100.00;92189.81;2098702;28;20040;-84
2023/09/21 01:52:52;;;;;;;5.30;2.63;;;;;;;13.71;100.00;92189.53;2114665;28;20389;-86
2023/09/21 01:53:53;;;;;;;4.35;2.70;;;;;;;13.78;100.00;92189.19;2123280;27;20031;-85
2023/09/21 01:54:54;;;;;;;4.45;3.30;;;;;;;13.78;100.00;92192.63;2115372;28;20019;-83
2023/09/21 01:55:55;;;;;;;4.32;2.88;;;;;;;13.74;100.00;92180.53;2106164;28;20020;-85
2023/09/21 01:56:56;;;;;;;7.13;2.85;;;;;;;13.69;100.00;92179.25;2097929;28;20031;-86
2023/09/21 01:57:57;;;;;;;3.47;2.80;;;;;;;13.67;100.00;92178.22;2106236;28;20024;-85
2023/09/21 01:59:00;;;;;;;4.03;2.95;;;;;;;13.67;100.00;92178.97;2114786;28;20035;-84
2023/09/21 02:00:25;;;;;;;6.65;2.75;;;;;;;13.69;100.00;92170.44;2114543;28;20030;-86
2023/09/21 02:01:23;;;;;;;3.83;3.08;;;;;;;13.75;100.00;92176.69;2108997;28;20016;-87
2023/09/21 02:02:26;;;;;;;8.18;3.15;;;;;;;13.81;100.00;92170.22;2114705;28;20118;-85
2023/09/21 02:03:27;;;;;;;4.53;3.03;;;;;;;13.78;100.00;92170.38;2114451;28;20015;-84
2023/09/21 02:04:28;;;;;;;4.07;2.72;;;;;;;13.73;100.00;92173.69;2106088;28;20114;-84
2023/09/21 02:05:29;;;;;;;4.53;2.83;;;;;;;13.61;100.00;92175.44;2105922;28;20024;-83
2023/09/21 02:06:30;;;;;;;3.85;2.55;;;;;;;13.62;100.00;92168.13;2114052;28;20103;-84
2023/09/21 02:07:31;;;;;;;8.15;3.28;;;;;;;13.68;100.00;92167.00;2106065;28;20073;-87
2023/09/21 02:08:33;;;;;;;3.53;2.80;;;;;;;13.64;100.00;92163.03;2105996;28;20447;-85
2023/09/21 02:09:34;;;;;;;5.38;3.30;;;;;;;13.69;100.00;92162.38;2114597;28;20507;-84
2023/09/21 02:10:38;;;;;;;4.82;3.20;;;;;;;13.74;100.00;92159.84;2114390;28;20030;-84
2023/09/21 02:11:39;;;;;;;5.38;3.00;;;;;;;13.72;100.00;92156.09;2115108;28;20023;-84
2023/09/21 02:12:52;;;;;;;7.55;2.90;;;;;;;13.79;100.00;92158.44;2119778;27;20083;-87
2023/09/21 02:13:52;;;;;;;3.45;2.75;;;;;;;13.69;100.00;92165.06;2114680;28;20577;-85
2023/09/21 02:14:54;;;;;;;7.25;3.33;;;;;;;13.59;100.00;92165.13;2112857;28;20151;-84
2023/09/21 02:15:55;;;;;;;4.50;3.15;;;;;;;13.61;100.00;92162.00;2114653;28;20028;-85
2023/09/21 02:16:56;;;;;;;5.10;3.00;;;;;;;13.67;100.00;92162.84;2106628;28;20492;-87
2023/09/21 02:17:57;;;;;;;4.03;3.63;;;;;;;13.66;100.00;92164.06;2098284;28;20079;-86
2023/09/21 02:18:58;;;;;;;4.50;2.83;;;;;;;13.63;100.00;92161.53;2106159;28;20055;-85
2023/09/21 02:19:59;;;;;;;3.65;2.85;;;;;;;13.65;100.00;92151.06;2123118;27;20102;-85
2023/09/21 02:21:08;;;;;;;3.35;2.90;;;;;;;13.62;100.00;92158.13;2122868;27;20022;-85
2023/09/21 02:22:11;;;;;;;8.73;2.95;;;;;;;13.64;100.00;92160.34;2115458;28;20100;-84
2023/09/21 02:23:13;;;;;;;3.40;2.88;;;;;;;13.62;100.00;92160.06;2114570;28;20027;-85
2023/09/21 02:24:14;;;;;;;3.75;3.08;;;;;;;13.59;100.00;92157.06;2122999;27;20027;-86
2023/09/21 02:25:17;;;;;;;4.28;2.85;;;;;;;13.66;100.00;92155.25;2122894;27;20018;-85
2023/09/21 02:26:19;;;;;;;4.53;2.47;;;;;;;13.62;100.00;92157.38;2106394;28;20081;-85
2023/09/21 02:27:21;;;;;;;6.50;3.13;;;;;;;13.59;100.00;92154.41;2106265;28;20066;-84
2023/09/21 02:28:23;;;;;;;3.20;2.45;;;;;;;13.66;100.00;92155.25;2114588;28;20031;-87
2023/09/21 02:29:24;;;;;;;4.15;2.97;;;;;;;13.59;100.00;92156.34;2123077;27;20132;-86
2023/09/21 02:30:25;;;;;;;3.25;2.60;;;;;;;13.61;100.00;92148.59;2121072;27;20023;-84
2023/09/21 02:31:26;;;;;;;3.30;2.70;;;;;;;13.64;100.00;92147.66;2106129;28;20016;-83
2023/09/21 02:32:27;;;;;;;7.32;3.05;;;;;;;13.63;100.00;92153.50;2106292;28;20110;-86
2023/09/21 02:33:29;;;;;;;3.53;3.00;;;;;;;13.67;100.00;92152.13;2106061;28;20465;-86
2023/09/21 02:34:30;;;;;;;5.07;2.95;;;;;;;13.66;100.00;92147.22;2106141;28;20480;-86
2023/09/21 02:35:33;;;;;;;3.63;2.55;;;;;;;13.68;100.00;92147.47;2105982;28;20048;-85
2023/09/21 02:36:34;;;;;;;3.80;2.75;;;;;;;13.72;100.00;92154.16;2106426;28;20081;-83
2023/09/21 02:37:35;;;;;;;3.30;2.90;;;;;;;13.76;100.00;92151.31;2106036;28;20037;-84
2023/09/21 02:38:36;;;;;;;3.50;2.88;;;;;;;13.82;100.00;92149.47;2106073;28;20023;-86
2023/09/21 02:39:37;;;;;;;5.82;2.78;;;;;;;13.70;100.00;92153.16;2099427;28;20059;-86
2023/09/21 02:40:40;;;;;;;5.68;2.90;;;;;;;13.57;100.00;92150.69;2090011;28;20409;-85
2023/09/21 02:41:45;;;;;;;5.80;2.97;;;;;;;13.68;100.00;92142.09;2090614;28;20032;-86
2023/09/21 02:42:51;;;;;;;4.63;2.85;;;;;;;13.64;100.00;92149.59;2098548;28;20021;-85
2023/09/21 02:43:53;;;;;;;5.50;2.95;;;;;;;13.74;100.00;92142.94;2106596;28;20424;-86
2023/09/21 02:44:55;;;;;;;2.90;2.55;;;;;;;13.76;100.00;92144.00;2097661;28;20426;-86
2023/09/21 02:45:56;;;;;;;4.75;3.08;;;;;;;13.74;100.00;92143.72;2097819;28;20025;-84
2023/09/21 02:47:01;;;;;;;4.57;2.78;;;;;;;13.55;100.00;92143.09;2090411;28;20040;-84
2023/09/21 02:48:03;;;;;;;3.17;2.70;;;;;;;13.57;100.00;92148.00;2089891;28;20020;-87
2023/09/21 02:49:06;;;;;;;3.45;2.65;;;;;;;13.46;100.00;92137.03;2098360;28;20158;-85
2023/09/21 02:50:15;;;;;;;3.78;2.50;;;;;;;13.43;100.00;92144.06;2121684;28;20029;-87
2023/09/21 02:51:16;;;;;;;4.38;2.80;;;;;;;13.49;100.00;92141.50;2114174;28;20031;-87
2023/09/21 02:52:17;;;;;;;4.68;2.53;;;;;;;13.51;100.00;92139.81;2114417;28;20479;-83
2023/09/21 02:53:20;;;;;;;2.90;2.40;;;;;;;13.53;100.00;92139.38;2105866;28;20119;-86
2023/09/21 02:54:22;;;;;;;66.93;6.90;;;;;;;13.59;100.00;92134.84;2098332;28;20107;-84
2023/09/21 02:55:24;;;;;;;3.38;2.38;;;;;;;13.59;100.00;92140.97;2097908;28;20527;-85
2023/09/21 02:56:25;;;;;;;3.70;2.75;;;;;;;13.57;100.00;92132.66;2106401;28;20024;-86
2023/09/21 02:57:28;;;;;;;3.20;2.30;;;;;;;13.59;100.00;92140.97;2106070;28;20078;-86
2023/09/21 02:58:28;;;;;;;4.53;2.38;;;;;;;13.64;100.00;92133.47;2106157;28;20024;-87
2023/09/21 02:59:29;;;;;;;4.60;2.55;;;;;;;13.66;100.00;92137.22;2111039;28;20039;-83
2023/09/21 03:00:39;;;;;;;18.38;3.42;;;;;;;13.67;100.00;92141.38;2114293;28;20053;-85
2023/09/21 03:01:40;;;;;;;2.67;2.22;;;;;;;13.65;100.00;92137.66;2107310;28;20118;-85
2023/09/21 03:02:41;;;;;;;5.65;2.67;;;;;;;13.69;100.00;92140.91;2105991;28;20036;-86
2023/09/21 03:03:42;;;;;;;9.20;3.20;;;;;;;13.77;100.00;92144.72;2097759;28;20020;-84
2023/09/21 03:04:45;;;;;;;10.15;2.53;;;;;;;13.70;100.00;92135.09;2089305;28;20017;-86
2023/09/21 03:05:47;;;;;;;6.00;2.47;;;;;;;13.74;100.00;92137.56;2097896;28;20051;-86
2023/09/21 03:06:48;;;;;;;7.57;2.85;;;;;;;13.73;100.00;92142.22;2106564;28;20444;-86
2023/09/21 03:07:49;;;;;;;5.43;2.42;;;;;;;13.66;100.00;92133.78;2111628;28;20051;-86
2023/09/21 03:08:51;;;;;;;3.70;2.40;;;;;;;13.72;100.00;92137.31;2114428;28;20030;-85
2023/09/21 03:09:53;;;;;;;4.22;2.10;;;;;;;13.71;100.00;92133.88;2114441;28;20034;-86
2023/09/21 03:10:55;;;;;;;6.22;2.78;;;;;;;13.67;100.00;92125.25;2097646;28;20024;-85
2023/09/21 03:11:59;;;;;;;3.22;2.38;;;;;;;13.70;100.00;92135.09;2098417;28;20021;-87
2023/09/21 03:13:00;;;;;;;3.17;2.58;;;;;;;13.73;100.00;92130.72;2106451;28;20016;-86
2023/09/21 03:14:04;;;;;;;4.00;2.72;;;;;;;13.72;100.00;92129.25;2114267;28;20035;-87
2023/09/21 03:15:18;;;;;;;5.32;2.72;;;;;;;13.70;100.00;92124.34;2106542;28;20103;-84
2023/09/21 03:16:19;;;;;;;3.72;2.40;;;;;;;13.67;100.00;92127.94;2107436;28;20098;-85
2023/09/21 03:17:20;;;;;;;5.07;2.50;;;;;;;13.67;100.00;92125.25;2114697;28;20045;-85
2023/09/21 03:18:21;;;;;;;4.90;2.88;;;;;;;13.61;100.00;92132.47;2115927;28;20023;-85
2023/09/21 03:19:24;;;;;;;3.53;2.85;;;;;;;13.62;100.00;92125.91;2116027;28;20449;-86
2023/09/21 03:20:34;;;;;;;3.20;2.55;;;;;;;13.63;100.00;92130.06;2107505;28;20050;-85
2023/09/21 03:21:36;;;;;;;5.35;3.00;;;;;;;13.71;100.00;92128.50;2101610;28;20020;-87
2023/09/21 03:22:37;;;;;;;3.80;2.70;;;;;;;13.71;100.00;92131.19;2107295;28;20051;-86
2023/09/21 03:23:39;;;;;;;5.60;3.17;;;;;;;13.49;100.00;92130.75;2107670;28;20024;-85
2023/09/21 03:24:40;;;;;;;4.70;2.97;;;;;;;13.50;100.00;92130.28;2099224;28;20020;-85
2023/09/21 03:25:47;;;;;;;4.20;2.88;;;;;;;13.58;100.00;92130.69;2099153;28;20048;-85
2023/09/21 03:26:50;;;;;;;3.03;2.72;;;;;;;13.71;100.00;92125.81;2098586;28;20033;-87
2023/09/21 03:28:07;;;;;;;3.42;2.47;;;;;;;13.62;100.00;92123.22;2107736;28;20381;-86
2023/09/21 03:29:10;;;;;;;3.72;2.63;;;;;;;13.61;100.00;92119.06;2109488;28;20043;-88
2023/09/21 03:30:11;;;;;;;4.47;3.08;;;;;;;13.55;100.00;92115.50;2107830;28;20508;-85
2023/09/21 03:31:13;;;;;;;3.65;2.40;;;;;;;13.56;100.00;92116.97;2099098;28;20017;-86
2023/09/21 03:32:14;;;;;;;4.13;2.80;;;;;;;13.54;100.00;92114.75;2099280;28;20409;-87
2023/09/21 03:33:19;;;;;;;3.45;2.85;;;;;;;13.49;100.00;92120.75;2107391;28;20055;-83
2023/09/21 03:34:20;;;;;;;5.57;2.90;;;;;;;13.48;100.00;92110.50;2107909;28;20024;-83
2023/09/21 03:35:24;;;;;;;4.53;3.10;;;;;;;13.43;100.00;92117.22;2107019;28;20032;-87
2023/09/21 03:36:25;;;;;;;6.07;3.00;;;;;;;13.41;100.00;92116.19;2108380;27;20519;-87
2023/09/21 03:37:26;;;;;;;5.97;3.00;;;;;;;13.48;100.00;92108.53;2107263;28;20059;-87
2023/09/21 03:38:27;;;;;;;4.85;2.70;;;;;;;13.77;100.00;92109.81;2099176;28;20032;-85
2023/09/21 03:39:28;;;;;;;4.35;2.70;;;;;;;13.74;100.00;92110.72;2107491;28;20028;-84
2023/09/21 03:40:30;;;;;;;3.25;2.88;;;;;;;13.73;100.00;92109.25;2115847;28;20032;-83
2023/09/21 03:41:32;;;;;;;5.57;2.80;;;;;;;13.68;100.00;92115.25;2116517;28;20094;-85
2023/09/21 03:42:33;;;;;;;4.18;2.95;;;;;;;13.52;100.00;92103.75;2107362;28;20073;-85
2023/09/21 03:43:34;;;;;;;7.32;2.70;;;;;;;13.53;100.00;92105.22;2091351;28;20024;-87
2023/09/21 03:44:36;;;;;;;3.88;2.92;;;;;;;13.66;100.00;92096.94;2099851;28;20507;-86
2023/09/21 03:45:37;;;;;;;3.78;2.80;;;;;;;13.66;100.00;92099.63;2108365;28;20111;-85
2023/09/21 03:46:40;;;;;;;3.83;2.60;;;;;;;13.66;100.00;92101.56;2105914;28;20213;-85
2023/09/21 03:47:42;;;;;;;4.13;3.10;;;;;;;13.59;100.00;92099.97;2099108;28;20032;-85
2023/09/21 03:48:43;;;;;;;4.53;3.20;;;;;;;13.55;100.00;92096.69;2107484;28;20032;-86
2023/09/21 03:49:44;;;;;;;3.88;2.63;;;;;;;13.57;100.00;92095.06;2098974;28;20055;-86
2023/09/21 03:50:47;;;;;;;4.43;2.72;;;;;;;13.57;100.00;92092.38;2090823;28;20432;-85
2023/09/21 03:51:48;;;;;;;4.03;2.85;;;;;;;13.52;100.00;92090.31;2099601;28;20025;-85
2023/09/21 03:52:50;;;;;;;6.60;3.20;;;;;;;13.59;100.00;92095.31;2115636;28;20038;-85
2023/09/21 03:53:52;;;;;;;5.45;3.30;;;;;;;13.55;100.00;92088.66;2107212;28;20385;-87
2023/09/21 03:54:54;;;;;;;3.47;2.80;;;;;;;13.48;100.00;92089.75;2107191;28;20028;-87
2023/09/21 03:55:56;;;;;;;3.40;2.70;;;;;;;13.47;100.00;92088.25;2098969;28;20044;-87
2023/09/21 03:56:57;;;;;;;6.43;2.90;;;;;;;13.43;100.00;92085.00;2107317;28;20053;-88
2023/09/21 03:57:58;;;;;;;5.25;3.10;;;;;;;13.41;100.00;92084.72;2107316;28;20020;-85
2023/09/21 03:59:00;;;;;;;3.13;2.83;;;;;;;13.39;100.00;92087.13;2107185;28;20443;-84
2023/09/21 04:00:05;;;;;;;3.47;2.70;;;;;;;13.48;100.00;92086.34;2099014;28;20048;-87
2023/09/21 04:01:09;;;;;;;3.60;2.72;;;;;;;13.58;100.00;92091.16;2107932;28;20019;-84
2023/09/21 04:02:10;;;;;;;4.70;3.00;;;;;;;13.66;100.00;92088.13;2107956;28;20016;-85
2023/09/21 04:03:11;;;;;;;3.92;2.83;;;;;;;13.65;100.00;92083.94;2105475;28;20649;-86
2023/09/21 04:04:17;;;;;;;5.20;3.03;;;;;;;13.66;100.00;92088.88;2098988;28;20048;-86
2023/09/21 04:05:19;;;;;;;4.25;3.15;;;;;;;13.64;100.00;92079.78;2100174;28;20016;-87
2023/09/21 04:06:20;;;;;;;3.50;2.80;;;;;;;13.64;100.00;92085.16;2107462;28;20024;-86
2023/09/21 04:07:21;;;;;;;3.20;2.70;;;;;;;13.62;100.00;92080.25;2115626;28;20034;-87
2023/09/21 04:08:21;;;;;;;7.53;3.10;;;;;;;13.58;100.00;92083.09;2115603;28;20479;-87
2023/09/21 04:09:22;;;;;;;5.03;3.30;;;;;;;13.57;100.00;92081.63;2098821;28;20021;-87
2023/09/21 04:10:23;;;;;;;6.40;3.20;;;;;;;13.64;100.00;92085.16;2090559;28;20032;-87
2023/09/21 04:11:26;;;;;;;4.53;2.90;;;;;;;13.63;100.00;92089.78;2101067;28;20028;-84
2023/09/21 04:12:27;;;;;;;4.57;3.05;;;;;;;13.63;100.00;92086.34;2098899;28;20451;-84
2023/09/21 04:13:28;;;;;;;6.00;3.20;;;;;;;13.60;100.00;92083.38;2098785;28;20024;-87
2023/09/21 04:14:29;;;;;;;3.92;2.95;;;;;;;13.59;100.00;92081.16;2090577;28;20017;-86
2023/09/21 04:15:30;;;;;;;4.10;2.95;;;;;;;13.64;100.00;92085.88;2098969;28;20052;-83
2023/09/21 04:16:31;;;;;;;6.57;3.45;;;;;;;13.69;100.00;92079.13;2115615;27;20026;-86
2023/09/21 04:17:32;;;;;;;4.47;2.85;;;;;;;13.76;100.00;92084.16;2124063;27;20022;-86
2023/09/21 04:18:33;;;;;;;5.13;3.17;;;;;;;13.70;100.00;92080.63;2115647;28;20034;-84
2023/09/21 04:19:35;;;;;;;5.60;3.00;;;;;;;13.72;100.00;92078.22;2098686;28;20016;-85
2023/09/21 04:20:39;;;;;;;4.13;2.85;;;;;;;13.62;100.00;92084.88;2107129;28;20083;-85
2023/09/21 04:21:41;;;;;;;4.38;3.25;;;;;;;13.62;100.00;92076.81;2106898;28;20036;-84
2023/09/21 04:22:43;;;;;;;5.72;3.33;;;;;;;13.64;100.00;92079.78;2098576;28;20032;-86
2023/09/21 04:23:44;;;;;;;4.47;2.83;;;;;;;13.68;100.00;92075.72;2098983;28;20017;-83
2023/09/21 04:24:44;;;;;;;4.32;2.88;;;;;;;13.75;100.00;92075.38;2098434;28;20567;-85
2023/09/21 04:25:47;;;;;;;4.05;3.08;;;;;;;13.77;100.00;92078.31;2098713;28;20056;-86
2023/09/21 04:26:48;;;;;;;6.38;3.15;;;;;;;13.78;100.00;92073.69;2115464;28;20102;-84
2023/09/21 04:27:50;;;;;;;4.18;2.85;;;;;;;13.70;100.00;92067.94;2115433;28;20477;-87
2023/09/21 04:28:51;;;;;;;4.60;3.13;;;;;;;13.59;100.00;92068.47;2106659;28;20051;-86
2023/09/21 04:29:52;;;;;;;5.32;3.05;;;;;;;13.59;100.00;92071.16;2101194;28;20489;-86
2023/09/21 04:30:53;;;;;;;3.70;3.08;;;;;;;13.67;100.00;92071.53;2099017;28;20159;-84
2023/09/21 04:31:54;;;;;;;6.38;3.25;;;;;;;13.61;100.00;92073.41;2106806;28;20094;-87
2023/09/21 04:32:57;;;;;;;5.93;2.90;;;;;;;13.71;100.00;92072.13;2106955;28;20511;-88
2023/09/21 04:33:58;;;;;;;6.30;3.30;;;;;;;13.69;100.00;92069.13;2098799;28;20027;-83
2023/09/21 04:34:58;;;;;;;5.15;2.90;;;;;;;13.72;100.00;92076.28;2099146;28;20093;-86
2023/09/21 04:35:59;;;;;;;6.03;2.80;;;;;;;13.69;100.00;92071.81;2102173;28;20100;-85
2023/09/21 04:37:00;;;;;;;5.20;3.00;;;;;;;13.72;100.00;92062.09;2115372;28;20023;-85
2023/09/21 04:38:03;;;;;;;6.22;3.05;;;;;;;13.78;100.00;92066.38;2115891;28;20473;-82
2023/09/21 04:39:05;;;;;;;5.72;2.78;;;;;;;13.89;100.00;92063.16;2107114;28;20047;-87
2023/09/21 04:40:11;;;;;;;3.60;2.75;;;;;;;13.83;100.00;92062.31;2107084;28;20020;-88
2023/09/21 04:41:15;;;;;;;8.02;3.05;;;;;;;13.72;100.00;92060.16;2107643;28;20020;-84
2023/09/21 04:42:16;;;;;;;4.57;3.10;;;;;;;13.74;100.00;92060.47;2107240;28;20016;-85
2023/09/21 04:43:18;;;;;;;3.95;3.03;;;;;;;13.67;100.00;92062.75;2098428;28;20093;-85
2023/09/21 04:44:19;;;;;;;4.63;2.95;;;;;;;13.73;100.00;92058.22;2090277;28;20461;-87
2023/09/21 04:45:20;;;;;;;7.18;3.33;;;;;;;13.69;100.00;92053.03;2098561;28;20150;-87
2023/09/21 04:46:22;;;;;;;3.65;3.10;;;;;;;13.70;100.00;92056.47;2115332;28;20490;-85
2023/09/21 04:47:23;;;;;;;6.25;2.97;;;;;;;13.68;100.00;92054.22;2114965;27;20115;-85
2023/09/21 04:48:24;;;;;;;4.57;3.17;;;;;;;13.73;100.00;92052.84;2106921;28;20153;-85
2023/09/21 04:49:25;;;;;;;5.30;3.38;;;;;;;13.68;100.00;92061.53;2104989;28;20028;-85
2023/09/21 04:50:26;;;;;;;4.90;3.00;;;;;;;13.62;100.00;92058.75;2106687;28;20024;-84